sensor_id;sensor_type;location;lat;lon;timestamp;P1;P2;P0
65012;PMS5003;51715;39.432;-77.518;2022-10-15T00:01:25;4;4;
65012;PMS5003;51715;39.432;-77.518;2022-10-15T00:03:53;5;5;
65012;PMS5003;51715;39.432;-77.518;2022-10-15T00:06:21;5;5;
65012;PMS5003;51715;39.432;-77.518;2022-10-15T00:08:49;3;3;
65012;PMS5003;51715;39.432;-77.518;2022-10-15T00:11:19;8;6;
65012;PMS5003;51715;39.432;-77.518;2022-10-15T00:13:50;4;4;
65012;PMS5003;51715;39.432;-77.518;2022-10-15T00:16:22;4;4;
65012;PMS5003;51715;39.432;-77.518;2022-10-15T00:18:54;7;7;
65012;PMS5003;51715;39.432;-77.518;2022-10-15T00:21:24;5;5;
65012;PMS5003;51715;39.432;-77.518;2022-10-15T00:23:54;6;6;
65012;PMS5003;51715;39.432;-77.518;2022-10-15T00:26:26;5;5;
65012;PMS5003;51715;39.432;-77.518;2022-10-15T00:28:56;6;6;
65012;PMS5003;51715;39.432;-77.518;2022-10-15T00:31:26;6;6;
65012;PMS5003;51715;39.432;-77.518;2022-10-15T00:33:56;5;5;
65012;PMS5003;51715;39.432;-77.518;2022-10-15T00:36:28;4;4;
65012;PMS5003;51715;39.432;-77.518;2022-10-15T00:39:00;4;4;
65012;PMS5003;51715;39.432;-77.518;2022-10-15T00:41:31;8;6;
65012;PMS5003;51715;39.432;-77.518;2022-10-15T00:44:01;5;5;
65012;PMS5003;51715;39.432;-77.518;2022-10-15T00:47:13;7;7;
65012;PMS5003;51715;39.432;-77.518;2022-10-15T00:49:45;9;9;
65012;PMS5003;51715;39.432;-77.518;2022-10-15T00:52:21;5;5;
65012;PMS5003;51715;39.432;-77.518;2022-10-15T00:54:53;3;3;
65012;PMS5003;51715;39.432;-77.518;2022-10-15T00:57:27;6;4;
65012;PMS5003;51715;39.432;-77.518;2022-10-15T01:00:01;5;5;
65012;PMS5003;51715;39.432;-77.518;2022-10-15T01:02:33;7;6;
65012;PMS5003;51715;39.432;-77.518;2022-10-15T01:05:04;5;4;
65012;PMS5003;51715;39.432;-77.518;2022-10-15T01:07:34;5;4;
65012;PMS5003;51715;39.432;-77.518;2022-10-15T01:10:02;6;5;
65012;PMS5003;51715;39.432;-77.518;2022-10-15T01:12:36;4;4;
65012;PMS5003;51715;39.432;-77.518;2022-10-15T01:15:14;5;5;
65012;PMS5003;51715;39.432;-77.518;2022-10-15T01:17:46;7;6;
65012;PMS5003;51715;39.432;-77.518;2022-10-15T01:20:40;7;6;
65012;PMS5003;51715;39.432;-77.518;2022-10-15T01:23:43;6;6;
65012;PMS5003;51715;39.432;-77.518;2022-10-15T01:27:10;5;5;
65012;PMS5003;51715;39.432;-77.518;2022-10-15T01:29:58;5;5;
65012;PMS5003;51715;39.432;-77.518;2022-10-15T01:32:48;7;6;
65012;PMS5003;51715;39.432;-77.518;2022-10-15T01:35:28;4;4;
65012;PMS5003;51715;39.432;-77.518;2022-10-15T01:38:06;5;5;
65012;PMS5003;51715;39.432;-77.518;2022-10-15T01:40:46;10;7;
65012;PMS5003;51715;39.432;-77.518;2022-10-15T01:43:19;6;5;
65012;PMS5003;51715;39.432;-77.518;2022-10-15T01:45:55;8;7;
65012;PMS5003;51715;39.432;-77.518;2022-10-15T01:48:27;6;6;
65012;PMS5003;51715;39.432;-77.518;2022-10-15T01:50:58;7;6;
65012;PMS5003;51715;39.432;-77.518;2022-10-15T01:53:31;6;6;
65012;PMS5003;51715;39.432;-77.518;2022-10-15T01:56:02;4;4;
65012;PMS5003;51715;39.432;-77.518;2022-10-15T01:58:34;7;7;
65012;PMS5003;51715;39.432;-77.518;2022-10-15T02:01:07;7;6;
65012;PMS5003;51715;39.432;-77.518;2022-10-15T02:03:43;7;7;
65012;PMS5003;51715;39.432;-77.518;2022-10-15T02:06:13;5;5;
65012;PMS5003;51715;39.432;-77.518;2022-10-15T02:08:49;5;5;
65012;PMS5003;51715;39.432;-77.518;2022-10-15T02:11:27;9;7;
65012;PMS5003;51715;39.432;-77.518;2022-10-15T02:14:06;9;9;
65012;PMS5003;51715;39.432;-77.518;2022-10-15T02:16:51;9;9;
65012;PMS5003;51715;39.432;-77.518;2022-10-15T02:19:28;10;8;
65012;PMS5003;51715;39.432;-77.518;2022-10-15T02:22:05;10;9;
65012;PMS5003;51715;39.432;-77.518;2022-10-15T02:24:42;6;5;
65012;PMS5003;51715;39.432;-77.518;2022-10-15T02:27:17;10;7;
65012;PMS5003;51715;39.432;-77.518;2022-10-15T02:29:46;6;6;
65012;PMS5003;51715;39.432;-77.518;2022-10-15T02:32:18;7;5;
65012;PMS5003;51715;39.432;-77.518;2022-10-15T02:34:49;7;7;
65012;PMS5003;51715;39.432;-77.518;2022-10-15T02:37:20;7;5;
65012;PMS5003;51715;39.432;-77.518;2022-10-15T02:39:51;8;8;
65012;PMS5003;51715;39.432;-77.518;2022-10-15T02:42:18;10;7;
65012;PMS5003;51715;39.432;-77.518;2022-10-15T02:44:48;8;8;
65012;PMS5003;51715;39.432;-77.518;2022-10-15T02:47:19;6;6;
65012;PMS5003;51715;39.432;-77.518;2022-10-15T02:49:48;9;7;
65012;PMS5003;51715;39.432;-77.518;2022-10-15T02:52:18;11;10;
65012;PMS5003;51715;39.432;-77.518;2022-10-15T02:54:48;8;8;
65012;PMS5003;51715;39.432;-77.518;2022-10-15T02:57:17;6;6;
65012;PMS5003;51715;39.432;-77.518;2022-10-15T02:59:44;8;8;
65012;PMS5003;51715;39.432;-77.518;2022-10-15T03:02:12;8;8;
65012;PMS5003;51715;39.432;-77.518;2022-10-15T03:04:41;11;9;
65012;PMS5003;51715;39.432;-77.518;2022-10-15T03:07:11;9;8;
65012;PMS5003;51715;39.432;-77.518;2022-10-15T03:09:39;8;8;
65012;PMS5003;51715;39.432;-77.518;2022-10-15T03:12:07;11;11;
65012;PMS5003;51715;39.432;-77.518;2022-10-15T03:14:35;7;7;
65012;PMS5003;51715;39.432;-77.518;2022-10-15T03:17:04;9;9;
65012;PMS5003;51715;39.432;-77.518;2022-10-15T03:19:32;9;7;
65012;PMS5003;51715;39.432;-77.518;2022-10-15T03:22:02;11;7;
65012;PMS5003;51715;39.432;-77.518;2022-10-15T03:24:30;9;7;
65012;PMS5003;51715;39.432;-77.518;2022-10-15T03:26:59;8;6;
65012;PMS5003;51715;39.432;-77.518;2022-10-15T03:29:28;6;6;
65012;PMS5003;51715;39.432;-77.518;2022-10-15T03:31:56;8;8;
65012;PMS5003;51715;39.432;-77.518;2022-10-15T03:34:26;11;11;
65012;PMS5003;51715;39.432;-77.518;2022-10-15T03:36:55;12;9;
65012;PMS5003;51715;39.432;-77.518;2022-10-15T03:39:24;10;9;
65012;PMS5003;51715;39.432;-77.518;2022-10-15T03:41:52;10;7;
65012;PMS5003;51715;39.432;-77.518;2022-10-15T03:44:20;7;7;
65012;PMS5003;51715;39.432;-77.518;2022-10-15T03:46:49;10;10;
65012;PMS5003;51715;39.432;-77.518;2022-10-15T03:49:17;7;7;
65012;PMS5003;51715;39.432;-77.518;2022-10-15T03:51:46;9;9;
65012;PMS5003;51715;39.432;-77.518;2022-10-15T03:54:14;9;9;
65012;PMS5003;51715;39.432;-77.518;2022-10-15T03:56:42;10;10;
65012;PMS5003;51715;39.432;-77.518;2022-10-15T03:59:10;10;10;
65012;PMS5003;51715;39.432;-77.518;2022-10-15T04:03:52;11;9;
65012;PMS5003;51715;39.432;-77.518;2022-10-15T04:06:20;11;10;
65012;PMS5003;51715;39.432;-77.518;2022-10-15T04:08:50;12;12;
65012;PMS5003;51715;39.432;-77.518;2022-10-15T04:11:19;9;9;
65012;PMS5003;51715;39.432;-77.518;2022-10-15T04:13:48;10;10;
65012;PMS5003;51715;39.432;-77.518;2022-10-15T04:16:17;10;10;
65012;PMS5003;51715;39.432;-77.518;2022-10-15T04:18:45;12;9;
65012;PMS5003;51715;39.432;-77.518;2022-10-15T04:21:13;10;10;
65012;PMS5003;51715;39.432;-77.518;2022-10-15T04:23:42;12;9;
65012;PMS5003;51715;39.432;-77.518;2022-10-15T04:26:09;9;9;
65012;PMS5003;51715;39.432;-77.518;2022-10-15T04:28:38;11;10;
65012;PMS5003;51715;39.432;-77.518;2022-10-15T04:31:06;9;9;
65012;PMS5003;51715;39.432;-77.518;2022-10-15T04:33:36;12;12;
65012;PMS5003;51715;39.432;-77.518;2022-10-15T04:36:04;11;11;
65012;PMS5003;51715;39.432;-77.518;2022-10-15T04:38:34;9;9;
65012;PMS5003;51715;39.432;-77.518;2022-10-15T04:41:03;10;10;
65012;PMS5003;51715;39.432;-77.518;2022-10-15T04:43:34;12;12;
65012;PMS5003;51715;39.432;-77.518;2022-10-15T04:46:03;8;8;
65012;PMS5003;51715;39.432;-77.518;2022-10-15T04:48:34;11;10;
65012;PMS5003;51715;39.432;-77.518;2022-10-15T04:51:03;9;8;
65012;PMS5003;51715;39.432;-77.518;2022-10-15T04:53:34;10;10;
65012;PMS5003;51715;39.432;-77.518;2022-10-15T04:56:02;14;14;
65012;PMS5003;51715;39.432;-77.518;2022-10-15T04:58:33;11;11;
65012;PMS5003;51715;39.432;-77.518;2022-10-15T05:01:03;9;9;
65012;PMS5003;51715;39.432;-77.518;2022-10-15T05:03:33;10;10;
65012;PMS5003;51715;39.432;-77.518;2022-10-15T05:06:02;9;9;
65012;PMS5003;51715;39.432;-77.518;2022-10-15T05:08:32;8;7;
65012;PMS5003;51715;39.432;-77.518;2022-10-15T05:11:02;9;9;
65012;PMS5003;51715;39.432;-77.518;2022-10-15T05:13:32;9;9;
65012;PMS5003;51715;39.432;-77.518;2022-10-15T05:16:07;13;11;
65012;PMS5003;51715;39.432;-77.518;2022-10-15T05:18:36;9;8;
65012;PMS5003;51715;39.432;-77.518;2022-10-15T05:21:05;10;9;
65012;PMS5003;51715;39.432;-77.518;2022-10-15T05:23:35;13;10;
65012;PMS5003;51715;39.432;-77.518;2022-10-15T05:26:04;12;10;
65012;PMS5003;51715;39.432;-77.518;2022-10-15T05:28:34;9;9;
65012;PMS5003;51715;39.432;-77.518;2022-10-15T05:31:04;9;9;
65012;PMS5003;51715;39.432;-77.518;2022-10-15T05:33:33;15;13;
65012;PMS5003;51715;39.432;-77.518;2022-10-15T05:36:10;14;11;
65012;PMS5003;51715;39.432;-77.518;2022-10-15T05:38:41;13;12;
65012;PMS5003;51715;39.432;-77.518;2022-10-15T05:41:09;14;10;
65012;PMS5003;51715;39.432;-77.518;2022-10-15T05:43:37;11;11;
65012;PMS5003;51715;39.432;-77.518;2022-10-15T05:46:06;12;11;
65012;PMS5003;51715;39.432;-77.518;2022-10-15T05:48:36;8;8;
65012;PMS5003;51715;39.432;-77.518;2022-10-15T05:51:11;13;11;
65012;PMS5003;51715;39.432;-77.518;2022-10-15T05:53:39;11;10;
65012;PMS5003;51715;39.432;-77.518;2022-10-15T05:56:10;10;10;
65012;PMS5003;51715;39.432;-77.518;2022-10-15T05:58:38;11;11;
65012;PMS5003;51715;39.432;-77.518;2022-10-15T06:01:07;13;12;
65012;PMS5003;51715;39.432;-77.518;2022-10-15T06:03:38;9;9;
65012;PMS5003;51715;39.432;-77.518;2022-10-15T06:06:15;13;11;
65012;PMS5003;51715;39.432;-77.518;2022-10-15T06:08:46;15;13;
65012;PMS5003;51715;39.432;-77.518;2022-10-15T06:11:16;9;9;
65012;PMS5003;51715;39.432;-77.518;2022-10-15T06:13:44;10;10;
65012;PMS5003;51715;39.432;-77.518;2022-10-15T06:16:13;11;11;
65012;PMS5003;51715;39.432;-77.518;2022-10-15T06:18:42;9;9;
65012;PMS5003;51715;39.432;-77.518;2022-10-15T06:21:10;9;8;
65012;PMS5003;51715;39.432;-77.518;2022-10-15T06:23:40;7;7;
65012;PMS5003;51715;39.432;-77.518;2022-10-15T06:26:08;9;9;
65012;PMS5003;51715;39.432;-77.518;2022-10-15T06:28:37;10;9;
65012;PMS5003;51715;39.432;-77.518;2022-10-15T06:31:06;11;10;
65012;PMS5003;51715;39.432;-77.518;2022-10-15T06:33:35;9;9;
65012;PMS5003;51715;39.432;-77.518;2022-10-15T06:36:04;11;11;
65012;PMS5003;51715;39.432;-77.518;2022-10-15T06:38:34;11;10;
65012;PMS5003;51715;39.432;-77.518;2022-10-15T06:41:03;8;8;
65012;PMS5003;51715;39.432;-77.518;2022-10-15T06:43:33;9;9;
65012;PMS5003;51715;39.432;-77.518;2022-10-15T06:46:01;8;8;
65012;PMS5003;51715;39.432;-77.518;2022-10-15T06:48:31;10;10;
65012;PMS5003;51715;39.432;-77.518;2022-10-15T06:51:01;9;8;
65012;PMS5003;51715;39.432;-77.518;2022-10-15T06:53:30;10;8;
65012;PMS5003;51715;39.432;-77.518;2022-10-15T06:55:59;10;8;
65012;PMS5003;51715;39.432;-77.518;2022-10-15T06:58:28;9;9;
65012;PMS5003;51715;39.432;-77.518;2022-10-15T07:01:00;10;8;
65012;PMS5003;51715;39.432;-77.518;2022-10-15T07:03:30;11;9;
65012;PMS5003;51715;39.432;-77.518;2022-10-15T07:06:00;7;7;
65012;PMS5003;51715;39.432;-77.518;2022-10-15T07:08:37;6;6;
65012;PMS5003;51715;39.432;-77.518;2022-10-15T07:11:05;9;8;
65012;PMS5003;51715;39.432;-77.518;2022-10-15T07:13:34;7;7;
65012;PMS5003;51715;39.432;-77.518;2022-10-15T07:16:03;7;7;
65012;PMS5003;51715;39.432;-77.518;2022-10-15T07:18:32;6;6;
65012;PMS5003;51715;39.432;-77.518;2022-10-15T07:21:00;7;6;
65012;PMS5003;51715;39.432;-77.518;2022-10-15T07:23:30;7;7;
65012;PMS5003;51715;39.432;-77.518;2022-10-15T07:25:59;9;8;
65012;PMS5003;51715;39.432;-77.518;2022-10-15T07:28:28;10;8;
65012;PMS5003;51715;39.432;-77.518;2022-10-15T07:30:59;7;7;
65012;PMS5003;51715;39.432;-77.518;2022-10-15T07:33:28;4;4;
65012;PMS5003;51715;39.432;-77.518;2022-10-15T07:35:56;6;6;
65012;PMS5003;51715;39.432;-77.518;2022-10-15T07:38:24;8;8;
65012;PMS5003;51715;39.432;-77.518;2022-10-15T07:40:55;7;7;
65012;PMS5003;51715;39.432;-77.518;2022-10-15T07:43:25;7;5;
65012;PMS5003;51715;39.432;-77.518;2022-10-15T07:45:54;6;6;
65012;PMS5003;51715;39.432;-77.518;2022-10-15T07:48:22;6;6;
65012;PMS5003;51715;39.432;-77.518;2022-10-15T07:50:53;7;6;
65012;PMS5003;51715;39.432;-77.518;2022-10-15T07:53:21;5;5;
65012;PMS5003;51715;39.432;-77.518;2022-10-15T07:55:51;5;5;
65012;PMS5003;51715;39.432;-77.518;2022-10-15T07:58:19;8;8;
65012;PMS5003;51715;39.432;-77.518;2022-10-15T08:00:47;10;8;
65012;PMS5003;51715;39.432;-77.518;2022-10-15T08:03:16;7;7;
65012;PMS5003;51715;39.432;-77.518;2022-10-15T08:05:44;9;8;
65012;PMS5003;51715;39.432;-77.518;2022-10-15T08:08:14;7;7;
65012;PMS5003;51715;39.432;-77.518;2022-10-15T08:10:42;7;6;
65012;PMS5003;51715;39.432;-77.518;2022-10-15T08:13:10;10;9;
65012;PMS5003;51715;39.432;-77.518;2022-10-15T08:15:39;7;6;
65012;PMS5003;51715;39.432;-77.518;2022-10-15T08:22:10;7;7;
65012;PMS5003;51715;39.432;-77.518;2022-10-15T08:24:39;6;6;
65012;PMS5003;51715;39.432;-77.518;2022-10-15T08:27:07;6;6;
65012;PMS5003;51715;39.432;-77.518;2022-10-15T08:29:35;6;6;
65012;PMS5003;51715;39.432;-77.518;2022-10-15T08:32:03;8;8;
65012;PMS5003;51715;39.432;-77.518;2022-10-15T08:34:31;9;6;
65012;PMS5003;51715;39.432;-77.518;2022-10-15T08:37:01;9;9;
65012;PMS5003;51715;39.432;-77.518;2022-10-15T08:39:37;7;7;
65012;PMS5003;51715;39.432;-77.518;2022-10-15T08:42:05;7;7;
65012;PMS5003;51715;39.432;-77.518;2022-10-15T08:44:45;7;7;
65012;PMS5003;51715;39.432;-77.518;2022-10-15T08:47:24;6;6;
65012;PMS5003;51715;39.432;-77.518;2022-10-15T08:49:57;8;8;
65012;PMS5003;51715;39.432;-77.518;2022-10-15T08:52:28;7;7;
65012;PMS5003;51715;39.432;-77.518;2022-10-15T08:55:07;5;5;
65012;PMS5003;51715;39.432;-77.518;2022-10-15T08:57:40;9;7;
65012;PMS5003;51715;39.432;-77.518;2022-10-15T09:00:14;7;7;
65012;PMS5003;51715;39.432;-77.518;2022-10-15T09:02:49;7;6;
65012;PMS5003;51715;39.432;-77.518;2022-10-15T09:05:25;12;8;
65012;PMS5003;51715;39.432;-77.518;2022-10-15T09:08:02;6;6;
65012;PMS5003;51715;39.432;-77.518;2022-10-15T09:10:40;11;9;
65012;PMS5003;51715;39.432;-77.518;2022-10-15T09:13:13;6;6;
65012;PMS5003;51715;39.432;-77.518;2022-10-15T09:15:49;7;7;
65012;PMS5003;51715;39.432;-77.518;2022-10-15T09:18:22;11;10;
65012;PMS5003;51715;39.432;-77.518;2022-10-15T09:20:54;8;7;
65012;PMS5003;51715;39.432;-77.518;2022-10-15T09:23:25;13;11;
65012;PMS5003;51715;39.432;-77.518;2022-10-15T09:25:57;9;9;
65012;PMS5003;51715;39.432;-77.518;2022-10-15T09:28:34;10;10;
65012;PMS5003;51715;39.432;-77.518;2022-10-15T09:31:09;11;11;
65012;PMS5003;51715;39.432;-77.518;2022-10-15T09:33:45;7;7;
65012;PMS5003;51715;39.432;-77.518;2022-10-15T09:36:20;7;6;
65012;PMS5003;51715;39.432;-77.518;2022-10-15T09:39:02;8;8;
65012;PMS5003;51715;39.432;-77.518;2022-10-15T09:41:42;8;7;
65012;PMS5003;51715;39.432;-77.518;2022-10-15T09:44:19;7;6;
65012;PMS5003;51715;39.432;-77.518;2022-10-15T09:46:51;8;8;
65012;PMS5003;51715;39.432;-77.518;2022-10-15T09:49:20;10;10;
65012;PMS5003;51715;39.432;-77.518;2022-10-15T09:51:53;8;8;
65012;PMS5003;51715;39.432;-77.518;2022-10-15T09:54:36;8;7;
65012;PMS5003;51715;39.432;-77.518;2022-10-15T09:57:11;9;9;
65012;PMS5003;51715;39.432;-77.518;2022-10-15T09:59:51;10;8;
65012;PMS5003;51715;39.432;-77.518;2022-10-15T10:02:20;9;7;
65012;PMS5003;51715;39.432;-77.518;2022-10-15T10:04:49;8;7;
65012;PMS5003;51715;39.432;-77.518;2022-10-15T10:07:34;9;8;
65012;PMS5003;51715;39.432;-77.518;2022-10-15T10:10:05;10;10;
65012;PMS5003;51715;39.432;-77.518;2022-10-15T10:12:48;9;8;
65012;PMS5003;51715;39.432;-77.518;2022-10-15T10:15:25;10;10;
65012;PMS5003;51715;39.432;-77.518;2022-10-15T10:17:58;12;11;
65012;PMS5003;51715;39.432;-77.518;2022-10-15T10:20:27;8;8;
65012;PMS5003;51715;39.432;-77.518;2022-10-15T10:22:57;10;10;
65012;PMS5003;51715;39.432;-77.518;2022-10-15T10:25:28;8;7;
65012;PMS5003;51715;39.432;-77.518;2022-10-15T10:28:03;9;9;
65012;PMS5003;51715;39.432;-77.518;2022-10-15T10:30:48;11;11;
65012;PMS5003;51715;39.432;-77.518;2022-10-15T10:33:26;12;9;
65012;PMS5003;51715;39.432;-77.518;2022-10-15T10:35:56;10;8;
65012;PMS5003;51715;39.432;-77.518;2022-10-15T10:38:27;8;8;
65012;PMS5003;51715;39.432;-77.518;2022-10-15T10:40:58;11;11;
65012;PMS5003;51715;39.432;-77.518;2022-10-15T10:43:28;9;9;
65012;PMS5003;51715;39.432;-77.518;2022-10-15T10:45:59;9;9;
65012;PMS5003;51715;39.432;-77.518;2022-10-15T10:48:36;10;10;
65012;PMS5003;51715;39.432;-77.518;2022-10-15T10:51:08;13;13;
65012;PMS5003;51715;39.432;-77.518;2022-10-15T10:53:43;13;10;
65012;PMS5003;51715;39.432;-77.518;2022-10-15T10:56:16;10;8;
65012;PMS5003;51715;39.432;-77.518;2022-10-15T10:58:50;12;12;
65012;PMS5003;51715;39.432;-77.518;2022-10-15T11:01:25;11;9;
65012;PMS5003;51715;39.432;-77.518;2022-10-15T11:03:54;12;9;
65012;PMS5003;51715;39.432;-77.518;2022-10-15T11:06:25;11;10;
65012;PMS5003;51715;39.432;-77.518;2022-10-15T11:09:08;10;10;
65012;PMS5003;51715;39.432;-77.518;2022-10-15T11:11:46;10;10;
65012;PMS5003;51715;39.432;-77.518;2022-10-15T11:14:27;13;10;
65012;PMS5003;51715;39.432;-77.518;2022-10-15T11:17:13;13;8;
65012;PMS5003;51715;39.432;-77.518;2022-10-15T11:19:50;11;9;
65012;PMS5003;51715;39.432;-77.518;2022-10-15T11:22:29;10;10;
65012;PMS5003;51715;39.432;-77.518;2022-10-15T11:25:13;12;9;
65012;PMS5003;51715;39.432;-77.518;2022-10-15T11:27:52;12;12;
65012;PMS5003;51715;39.432;-77.518;2022-10-15T11:30:36;11;10;
65012;PMS5003;51715;39.432;-77.518;2022-10-15T11:33:17;9;9;
65012;PMS5003;51715;39.432;-77.518;2022-10-15T11:35:58;11;9;
65012;PMS5003;51715;39.432;-77.518;2022-10-15T11:36:16;10;10;
65012;PMS5003;51715;39.432;-77.518;2022-10-15T11:39:05;11;11;
65012;PMS5003;51715;39.432;-77.518;2022-10-15T11:41:51;10;10;
65012;PMS5003;51715;39.432;-77.518;2022-10-15T11:44:33;12;11;
65012;PMS5003;51715;39.432;-77.518;2022-10-15T11:47:14;9;9;
65012;PMS5003;51715;39.432;-77.518;2022-10-15T11:49:55;10;8;
65012;PMS5003;51715;39.432;-77.518;2022-10-15T11:52:36;11;9;
65012;PMS5003;51715;39.432;-77.518;2022-10-15T11:55:16;11;9;
65012;PMS5003;51715;39.432;-77.518;2022-10-15T11:57:47;9;9;
65012;PMS5003;51715;39.432;-77.518;2022-10-15T12:00:27;9;9;
65012;PMS5003;51715;39.432;-77.518;2022-10-15T12:03:01;15;12;
65012;PMS5003;51715;39.432;-77.518;2022-10-15T12:05:34;8;8;
65012;PMS5003;51715;39.432;-77.518;2022-10-15T12:08:10;8;8;
65012;PMS5003;51715;39.432;-77.518;2022-10-15T12:10:50;9;9;
65012;PMS5003;51715;39.432;-77.518;2022-10-15T12:13:32;7;7;
65012;PMS5003;51715;39.432;-77.518;2022-10-15T12:16:14;11;10;
65012;PMS5003;51715;39.432;-77.518;2022-10-15T12:18:53;11;11;
65012;PMS5003;51715;39.432;-77.518;2022-10-15T12:21:30;9;9;
65012;PMS5003;51715;39.432;-77.518;2022-10-15T12:24:01;7;7;
65012;PMS5003;51715;39.432;-77.518;2022-10-15T12:26:32;12;11;
65012;PMS5003;51715;39.432;-77.518;2022-10-15T12:29:02;9;9;
65012;PMS5003;51715;39.432;-77.518;2022-10-15T12:31:42;12;8;
65012;PMS5003;51715;39.432;-77.518;2022-10-15T12:34:24;14;12;
65012;PMS5003;51715;39.432;-77.518;2022-10-15T12:37:00;15;12;
65012;PMS5003;51715;39.432;-77.518;2022-10-15T12:39:31;10;10;
65012;PMS5003;51715;39.432;-77.518;2022-10-15T12:42:00;9;9;
65012;PMS5003;51715;39.432;-77.518;2022-10-15T12:44:30;11;10;
65012;PMS5003;51715;39.432;-77.518;2022-10-15T12:47:01;12;11;
65012;PMS5003;51715;39.432;-77.518;2022-10-15T12:49:46;15;15;
65012;PMS5003;51715;39.432;-77.518;2022-10-15T12:53:40;16;16;
65012;PMS5003;51715;39.432;-77.518;2022-10-15T12:56:11;16;15;
65012;PMS5003;51715;39.432;-77.518;2022-10-15T12:58:47;11;11;
65012;PMS5003;51715;39.432;-77.518;2022-10-15T13:01:28;14;14;
65012;PMS5003;51715;39.432;-77.518;2022-10-15T13:04:15;19;16;
65012;PMS5003;51715;39.432;-77.518;2022-10-15T13:06:45;14;13;
65012;PMS5003;51715;39.432;-77.518;2022-10-15T13:09:22;12;12;
65012;PMS5003;51715;39.432;-77.518;2022-10-15T13:11:55;13;13;
65012;PMS5003;51715;39.432;-77.518;2022-10-15T13:14:28;14;14;
65012;PMS5003;51715;39.432;-77.518;2022-10-15T13:16:59;14;13;
65012;PMS5003;51715;39.432;-77.518;2022-10-15T13:19:32;14;14;
65012;PMS5003;51715;39.432;-77.518;2022-10-15T13:22:05;16;16;
65012;PMS5003;51715;39.432;-77.518;2022-10-15T13:24:46;16;14;
65012;PMS5003;51715;39.432;-77.518;2022-10-15T13:27:19;12;12;
65012;PMS5003;51715;39.432;-77.518;2022-10-15T13:29:55;18;16;
65012;PMS5003;51715;39.432;-77.518;2022-10-15T13:32:28;14;14;
65012;PMS5003;51715;39.432;-77.518;2022-10-15T13:34:59;14;14;
65012;PMS5003;51715;39.432;-77.518;2022-10-15T13:37:30;14;14;
65012;PMS5003;51715;39.432;-77.518;2022-10-15T13:40:00;13;13;
65012;PMS5003;51715;39.432;-77.518;2022-10-15T13:42:35;12;12;
65012;PMS5003;51715;39.432;-77.518;2022-10-15T13:45:15;14;13;
65012;PMS5003;51715;39.432;-77.518;2022-10-15T13:47:46;10;10;
65012;PMS5003;51715;39.432;-77.518;2022-10-15T13:50:17;14;13;
65012;PMS5003;51715;39.432;-77.518;2022-10-15T13:52:48;11;11;
65012;PMS5003;51715;39.432;-77.518;2022-10-15T13:55:22;12;12;
65012;PMS5003;51715;39.432;-77.518;2022-10-15T13:57:53;12;12;
65012;PMS5003;51715;39.432;-77.518;2022-10-15T14:00:26;12;12;
65012;PMS5003;51715;39.432;-77.518;2022-10-15T14:03:13;13;13;
65012;PMS5003;51715;39.432;-77.518;2022-10-15T14:05:45;14;14;
65012;PMS5003;51715;39.432;-77.518;2022-10-15T14:08:16;14;14;
65012;PMS5003;51715;39.432;-77.518;2022-10-15T14:10:48;12;12;
65012;PMS5003;51715;39.432;-77.518;2022-10-15T14:13:19;15;14;
65012;PMS5003;51715;39.432;-77.518;2022-10-15T14:15:51;11;11;
65012;PMS5003;51715;39.432;-77.518;2022-10-15T14:18:29;15;14;
65012;PMS5003;51715;39.432;-77.518;2022-10-15T14:21:00;13;13;
65012;PMS5003;51715;39.432;-77.518;2022-10-15T14:23:40;15;14;
65012;PMS5003;51715;39.432;-77.518;2022-10-15T14:26:11;14;14;
65012;PMS5003;51715;39.432;-77.518;2022-10-15T14:28:41;12;12;
65012;PMS5003;51715;39.432;-77.518;2022-10-15T14:31:24;10;10;
65012;PMS5003;51715;39.432;-77.518;2022-10-15T14:33:57;10;10;
65012;PMS5003;51715;39.432;-77.518;2022-10-15T14:36:26;12;12;
65012;PMS5003;51715;39.432;-77.518;2022-10-15T14:39:17;13;12;
65012;PMS5003;51715;39.432;-77.518;2022-10-15T14:41:54;11;11;
65012;PMS5003;51715;39.432;-77.518;2022-10-15T14:44:25;12;10;
65012;PMS5003;51715;39.432;-77.518;2022-10-15T14:47:12;10;10;
65012;PMS5003;51715;39.432;-77.518;2022-10-15T14:49:47;11;11;
65012;PMS5003;51715;39.432;-77.518;2022-10-15T14:52:20;10;10;
65012;PMS5003;51715;39.432;-77.518;2022-10-15T14:54:54;11;11;
65012;PMS5003;51715;39.432;-77.518;2022-10-15T14:57:28;11;10;
65012;PMS5003;51715;39.432;-77.518;2022-10-15T15:00:03;11;11;
65012;PMS5003;51715;39.432;-77.518;2022-10-15T15:02:40;12;11;
65012;PMS5003;51715;39.432;-77.518;2022-10-15T15:05:16;11;11;
65012;PMS5003;51715;39.432;-77.518;2022-10-15T15:07:46;10;10;
65012;PMS5003;51715;39.432;-77.518;2022-10-15T15:10:16;8;8;
65012;PMS5003;51715;39.432;-77.518;2022-10-15T15:12:45;8;8;
65012;PMS5003;51715;39.432;-77.518;2022-10-15T15:15:18;8;8;
65012;PMS5003;51715;39.432;-77.518;2022-10-15T15:17:48;8;8;
65012;PMS5003;51715;39.432;-77.518;2022-10-15T15:20:18;9;7;
65012;PMS5003;51715;39.432;-77.518;2022-10-15T15:22:48;7;7;
65012;PMS5003;51715;39.432;-77.518;2022-10-15T15:25:19;8;8;
65012;PMS5003;51715;39.432;-77.518;2022-10-15T15:27:52;5;5;
65012;PMS5003;51715;39.432;-77.518;2022-10-15T15:30:21;6;6;
65012;PMS5003;51715;39.432;-77.518;2022-10-15T15:32:51;8;7;
65012;PMS5003;51715;39.432;-77.518;2022-10-15T15:35:21;7;6;
65012;PMS5003;51715;39.432;-77.518;2022-10-15T15:37:51;7;7;
65012;PMS5003;51715;39.432;-77.518;2022-10-15T15:40:20;7;7;
65012;PMS5003;51715;39.432;-77.518;2022-10-15T15:42:49;8;8;
65012;PMS5003;51715;39.432;-77.518;2022-10-15T15:45:18;8;6;
65012;PMS5003;51715;39.432;-77.518;2022-10-15T15:47:48;6;6;
65012;PMS5003;51715;39.432;-77.518;2022-10-15T15:50:19;8;7;
65012;PMS5003;51715;39.432;-77.518;2022-10-15T15:52:47;7;7;
65012;PMS5003;51715;39.432;-77.518;2022-10-15T15:55:16;7;7;
65012;PMS5003;51715;39.432;-77.518;2022-10-15T15:57:44;6;6;
65012;PMS5003;51715;39.432;-77.518;2022-10-15T16:00:14;7;6;
65012;PMS5003;51715;39.432;-77.518;2022-10-15T16:02:43;8;7;
65012;PMS5003;51715;39.432;-77.518;2022-10-15T16:05:13;8;8;
65012;PMS5003;51715;39.432;-77.518;2022-10-15T16:07:43;7;6;
65012;PMS5003;51715;39.432;-77.518;2022-10-15T16:10:11;7;6;
65012;PMS5003;51715;39.432;-77.518;2022-10-15T16:12:41;5;5;
65012;PMS5003;51715;39.432;-77.518;2022-10-15T16:15:09;6;6;
65012;PMS5003;51715;39.432;-77.518;2022-10-15T16:17:38;5;4;
65012;PMS5003;51715;39.432;-77.518;2022-10-15T16:20:08;5;5;
65012;PMS5003;51715;39.432;-77.518;2022-10-15T16:22:38;7;7;
65012;PMS5003;51715;39.432;-77.518;2022-10-15T16:25:07;5;5;
65012;PMS5003;51715;39.432;-77.518;2022-10-15T16:27:36;7;6;
65012;PMS5003;51715;39.432;-77.518;2022-10-15T16:30:05;5;5;
65012;PMS5003;51715;39.432;-77.518;2022-10-15T16:32:34;4;4;
65012;PMS5003;51715;39.432;-77.518;2022-10-15T16:35:03;3;3;
65012;PMS5003;51715;39.432;-77.518;2022-10-15T16:37:32;7;6;
65012;PMS5003;51715;39.432;-77.518;2022-10-15T16:40:02;6;5;
65012;PMS5003;51715;39.432;-77.518;2022-10-15T16:42:32;6;6;
65012;PMS5003;51715;39.432;-77.518;2022-10-15T16:45:00;8;6;
65012;PMS5003;51715;39.432;-77.518;2022-10-15T16:47:29;6;6;